createdAt,value
2023-04-10T00:01:49.629Z,3.92
2023-04-10T00:06:51.813Z,1.70
2023-04-10T00:11:54.694Z,2.92
2023-04-10T00:16:56.852Z,1.95
2023-04-10T00:21:59.133Z,3.53
2023-04-10T00:27:01.753Z,4.97
2023-04-10T00:32:04.200Z,4.50
2023-04-10T00:37:06.471Z,4.43
2023-04-10T00:42:10.075Z,4.47
2023-04-10T00:47:14.275Z,3.70
2023-04-10T00:52:16.595Z,5.03
2023-04-10T00:57:18.768Z,5.63
2023-04-10T01:02:21.086Z,5.13
2023-04-10T01:07:54.977Z,4.80
2023-04-10T01:13:20.095Z,5.15
2023-04-10T01:18:22.528Z,5.47
2023-04-10T01:23:49.210Z,5.50
2023-04-10T01:29:00.621Z,5.18
2023-04-10T01:34:10.589Z,4.32
2023-04-10T01:39:13.515Z,6.03
2023-04-10T01:44:17.113Z,4.32
2023-04-10T01:49:20.502Z,3.22
2023-04-10T01:54:22.926Z,4.72
2023-04-10T01:59:25.445Z,3.30
2023-04-10T02:04:28.275Z,4.63
2023-04-10T02:09:54.636Z,3.95
2023-04-10T02:20:04.844Z,4.60
2023-04-10T02:25:08.813Z,3.05
2023-04-10T02:30:11.779Z,3.28
2023-04-10T02:35:14.195Z,4.22
2023-04-10T02:40:16.818Z,4.35
2023-04-10T02:45:29.840Z,5.80
2023-04-10T02:50:32.420Z,3.63
2023-04-10T02:55:36.223Z,3.75
2023-04-10T03:00:39.380Z,4.78
2023-04-10T03:05:50.539Z,3.60
2023-04-10T03:10:58.185Z,3.10
2023-04-10T03:16:00.618Z,4.07
2023-04-10T03:21:02.983Z,3.13
2023-04-10T03:26:05.456Z,4.03
2023-04-10T03:31:12.755Z,4.88
2023-04-10T03:36:17.621Z,4.20
2023-04-10T03:41:19.776Z,6.70
2023-04-10T03:46:22.817Z,4.95
2023-04-10T03:51:27.356Z,5.13
2023-04-10T03:56:29.512Z,5.82
2023-04-10T04:01:33.096Z,6.15
2023-04-10T04:06:41.152Z,5.68
2023-04-10T04:11:59.525Z,6.15
2023-04-10T04:17:28.205Z,6.07
2023-04-10T04:22:39.121Z,5.70
2023-04-10T04:28:01.495Z,7.25
2023-04-10T04:33:06.209Z,3.95
2023-04-10T04:38:25.950Z,7.57
2023-04-10T04:43:43.361Z,8.18
2023-04-10T04:49:11.599Z,5.60
2023-04-10T04:54:28.557Z,6.90
2023-04-10T04:59:49.413Z,6.30
2023-04-10T05:05:09.878Z,7.90
2023-04-10T05:10:27.477Z,5.88
2023-04-10T05:15:52.728Z,5.13
2023-04-10T05:20:54.963Z,4.97
2023-04-10T05:26:32.418Z,6.88
2023-04-10T05:31:53.513Z,3.80
2023-04-10T05:37:25.853Z,2.33
2023-04-10T05:42:35.496Z,3.95
2023-04-10T05:48:00.248Z,5.43
2023-04-10T05:53:14.526Z,3.03
2023-04-10T05:58:20.571Z,3.60
2023-04-10T06:03:48.384Z,0.88
2023-04-10T06:08:53.292Z,1.05
2023-04-10T06:13:55.868Z,0.63
2023-04-10T06:19:04.891Z,0.52
2023-04-10T06:24:07.790Z,0.45
2023-04-10T06:29:09.924Z,0.50
2023-04-10T06:34:12.333Z,0.32
2023-04-10T06:39:23.425Z,0.35
2023-04-10T06:44:25.718Z,0.40
2023-04-10T06:49:27.774Z,1.08
2023-04-10T06:54:29.818Z,0.73
2023-04-10T06:59:34.037Z,0.80
2023-04-10T07:04:36.761Z,1.33
2023-04-10T07:09:39.301Z,0.47
2023-04-10T07:14:41.568Z,1.27
2023-04-10T07:19:43.625Z,2.88
2023-04-10T07:24:45.818Z,2.05
2023-04-10T07:29:47.948Z,3.15
2023-04-10T07:34:50.403Z,3.88
2023-04-10T07:39:52.538Z,4.05
2023-04-10T07:44:54.663Z,2.60
2023-04-10T07:49:56.847Z,5.30
2023-04-10T07:55:01.524Z,4.55
2023-04-10T08:00:04.009Z,6.15
2023-04-10T08:05:14.835Z,6.63
2023-04-10T08:10:17.078Z,9.25
2023-04-10T08:15:19.222Z,7.25
2023-04-10T08:20:21.370Z,6.32
2023-04-10T08:25:23.520Z,6.97
2023-04-10T08:30:25.698Z,6.20
2023-04-10T08:35:27.828Z,6.40
2023-04-10T08:40:29.927Z,6.53
2023-04-10T08:45:32.024Z,9.70
2023-04-10T08:50:36.254Z,8.57
2023-04-10T08:55:40.245Z,11.07
2023-04-10T09:00:42.408Z,9.40
2023-04-10T09:05:44.640Z,7.80
2023-04-10T09:10:46.931Z,12.90
2023-04-10T09:16:01.900Z,14.13
2023-04-10T09:21:08.053Z,16.38
2023-04-10T09:26:26.033Z,11.93
2023-04-10T09:31:38.710Z,15.65
2023-04-10T09:36:43.952Z,11.95
2023-04-10T09:41:55.395Z,14.75
2023-04-10T09:47:16.343Z,10.75
2023-04-10T09:52:19.836Z,10.65
2023-04-10T09:57:23.285Z,13.82
2023-04-10T10:02:29.507Z,14.50
2023-04-10T10:07:32.284Z,16.55
2023-04-10T10:12:40.910Z,14.02
2023-04-10T10:17:55.465Z,10.50
2023-04-10T10:22:58.925Z,17.55
2023-04-10T10:28:04.170Z,16.02
2023-04-10T10:33:07.680Z,18.35
2023-04-10T10:38:10.638Z,18.17
2023-04-10T10:43:19.310Z,13.57
2023-04-10T10:48:21.421Z,11.07
2023-04-10T10:53:39.035Z,16.98
2023-04-10T10:58:48.268Z,15.82
2023-04-10T11:03:50.990Z,19.92
2023-04-10T11:08:54.025Z,15.10
2023-04-10T11:13:56.437Z,18.63
2023-04-10T11:19:13.145Z,17.63
2023-04-10T11:24:16.636Z,17.35
2023-04-10T11:29:27.560Z,23.42
2023-04-10T11:34:32.695Z,21.38
2023-04-10T11:39:34.757Z,17.05
2023-04-10T11:44:36.924Z,19.00
2023-04-10T11:49:39.056Z,23.67
2023-04-10T11:54:49.167Z,16.00
2023-04-10T11:59:51.691Z,16.00
2023-04-10T12:05:00.089Z,13.63
2023-04-10T12:10:02.407Z,9.15
2023-04-10T12:15:30.226Z,13.73
2023-04-10T12:20:32.405Z,13.25
2023-04-10T12:25:35.285Z,12.95
2023-04-10T12:30:38.041Z,14.35
2023-04-10T12:35:42.738Z,15.15
2023-04-10T12:41:02.679Z,10.63
2023-04-10T12:46:06.099Z,12.38
2023-04-10T12:51:08.263Z,10.73
2023-04-10T12:56:12.266Z,10.90
2023-04-10T13:01:14.887Z,10.65
2023-04-10T13:06:16.931Z,11.73
2023-04-10T13:11:19.076Z,11.40
2023-04-10T13:16:21.127Z,11.60
2023-04-10T13:21:26.114Z,8.48
2023-04-10T13:26:28.673Z,12.97
2023-04-10T13:31:31.128Z,14.75
2023-04-10T13:36:54.262Z,7.70
2023-04-10T13:42:04.923Z,9.65
2023-04-10T13:47:10.315Z,11.18
2023-04-10T13:52:12.501Z,7.15
2023-04-10T13:57:14.786Z,10.00
2023-04-10T14:02:16.983Z,15.20
2023-04-10T14:07:20.101Z,14.70
2023-04-10T14:12:23.395Z,11.32
2023-04-10T14:17:25.524Z,14.10
2023-04-10T14:22:27.653Z,12.85
2023-04-10T14:27:29.671Z,11.90
2023-04-10T14:32:31.866Z,7.82
2023-04-10T14:37:34.044Z,12.65
2023-04-10T14:42:36.160Z,11.02
2023-04-10T14:47:38.336Z,14.45
2023-04-10T14:52:40.459Z,14.30
2023-04-10T14:57:42.528Z,15.38
2023-04-10T15:02:45.605Z,10.75
2023-04-10T15:07:47.935Z,12.77
2023-04-10T15:12:50.433Z,10.23
2023-04-10T15:17:52.553Z,15.85
2023-04-10T15:22:54.638Z,13.55
2023-04-10T15:27:57.385Z,10.27
2023-04-10T15:32:59.627Z,7.13
2023-04-10T15:38:01.728Z,9.50
2023-04-10T15:43:03.788Z,8.10
2023-04-10T15:48:06.103Z,9.05
2023-04-10T15:53:08.171Z,10.73
2023-04-10T15:58:10.360Z,11.15
2023-04-10T16:03:12.670Z,7.32
2023-04-10T16:08:14.814Z,9.00
2023-04-10T16:13:16.969Z,9.02
2023-04-10T16:18:19.063Z,15.43
2023-04-10T16:23:21.155Z,10.05
2023-04-10T16:28:23.406Z,11.10
2023-04-10T16:33:26.370Z,15.98
2023-04-10T16:38:28.414Z,16.70
2023-04-10T16:43:30.712Z,15.48
2023-04-10T16:48:34.975Z,14.63
2023-04-10T16:53:38.292Z,12.20
2023-04-10T16:58:42.060Z,15.55
2023-04-10T17:03:45.312Z,11.35
2023-04-10T17:08:47.566Z,14.25
2023-04-10T17:13:49.893Z,16.20
2023-04-10T17:18:52.100Z,21.58
2023-04-10T17:23:54.298Z,18.13
2023-04-10T17:28:56.627Z,13.60
2023-04-10T17:33:58.930Z,13.73
2023-04-10T17:39:01.136Z,15.27
2023-04-10T17:44:03.309Z,15.82
2023-04-10T17:49:05.420Z,25.63
2023-04-10T17:54:08.245Z,19.75
2023-04-10T17:59:10.729Z,12.55
2023-04-10T18:04:13.370Z,12.55
2023-04-10T18:09:15.623Z,19.20
2023-04-10T18:14:18.023Z,18.95
2023-04-10T18:19:20.049Z,14.13
2023-04-10T18:24:22.151Z,13.57
2023-04-10T18:29:26.376Z,12.73
2023-04-10T18:34:28.532Z,11.77
2023-04-10T18:39:30.660Z,17.73
2023-04-10T18:44:34.224Z,16.75
2023-04-10T18:49:37.069Z,17.60
2023-04-10T18:54:39.178Z,13.60
2023-04-10T18:59:41.536Z,19.17
2023-04-10T19:04:43.647Z,14.82
2023-04-10T19:09:47.916Z,9.80
2023-04-10T19:14:50.296Z,9.73
2023-04-10T19:19:53.216Z,12.95
2023-04-10T19:24:55.860Z,15.02
2023-04-10T19:29:57.948Z,10.88
2023-04-10T19:34:59.970Z,9.55
2023-04-10T19:40:02.120Z,11.45
2023-04-10T19:45:04.561Z,12.90
2023-04-10T19:50:07.212Z,8.02
2023-04-10T19:55:09.677Z,9.15
2023-04-10T20:00:12.578Z,12.23
2023-04-10T20:05:14.818Z,8.95
2023-04-10T20:10:16.914Z,10.10
2023-04-10T20:15:20.571Z,11.13
2023-04-10T20:20:22.665Z,13.82
2023-04-10T20:25:24.712Z,12.95
2023-04-10T20:30:26.738Z,13.30
2023-04-10T20:35:28.820Z,7.55
2023-04-10T20:40:30.920Z,11.60
2023-04-10T20:45:34.536Z,13.80
2023-04-10T20:50:39.777Z,9.45
2023-04-10T20:55:42.137Z,13.00
2023-04-10T21:00:44.254Z,10.48
2023-04-10T21:05:46.520Z,9.18
2023-04-10T21:10:48.611Z,9.27
2023-04-10T21:15:50.822Z,10.88
2023-04-10T21:20:52.877Z,15.85
2023-04-10T21:25:55.057Z,14.40
2023-04-10T21:30:57.352Z,14.38
2023-04-10T21:35:59.455Z,9.02
2023-04-10T21:41:01.741Z,12.15
2023-04-10T21:46:04.185Z,15.15
2023-04-10T21:51:06.550Z,16.20
2023-04-10T21:56:08.864Z,15.43
2023-04-10T22:01:11.858Z,13.20
2023-04-10T22:06:13.922Z,12.25
2023-04-10T22:11:16.036Z,10.85
2023-04-10T22:16:18.175Z,13.90
2023-04-10T22:21:20.426Z,9.43
2023-04-10T22:26:22.505Z,11.68
2023-04-10T22:31:24.653Z,12.25
2023-04-10T22:36:34.812Z,8.48
2023-04-10T22:41:37.054Z,18.77
2023-04-10T22:46:39.247Z,15.60
2023-04-10T22:51:42.057Z,13.93
2023-04-10T22:56:44.282Z,12.20
2023-04-10T23:01:46.450Z,12.52
2023-04-10T23:06:48.739Z,12.88
2023-04-10T23:11:50.885Z,11.73
2023-04-10T23:16:53.028Z,14.48
2023-04-10T23:21:55.141Z,10.15
2023-04-10T23:26:57.198Z,10.75
2023-04-10T23:31:59.262Z,10.40
2023-04-10T23:37:01.451Z,15.00
2023-04-10T23:42:04.136Z,18.23
2023-04-10T23:47:06.544Z,8.00
2023-04-10T23:52:10.199Z,16.98
2023-04-10T23:57:12.240Z,13.32
